TimeEDT,TemperatureF,Dew PointF,Humidity,Sea Level PressureIn,VisibilityMPH,Wind Direction,Wind SpeedMPH,Gust SpeedMPH,PrecipitationIn,Events,Conditions,WindDirDegrees,DateUTC
12:53 AM,39.0,33.1,79,30.34,10.0,North,5.8,-,N/A,,Clear,10,2013-09-16 04:53:00
1:53 AM,37.9,33.1,83,30.35,10.0,North,5.8,-,N/A,,Clear,360,2013-09-16 05:53:00
2:53 AM,37.9,34.0,86,30.36,10.0,North,3.5,-,N/A,,Clear,10,2013-09-16 06:53:00
3:53 AM,36.0,33.1,89,30.36,10.0,North,4.6,-,N/A,,Clear,360,2013-09-16 07:53:00
4:53 AM,37.0,35.1,93,30.38,10.0,Calm,Calm,-,N/A,,Clear,0,2013-09-16 08:53:00
5:53 AM,34.0,32.0,92,30.39,10.0,North,4.6,-,N/A,,Clear,360,2013-09-16 09:53:00
6:53 AM,33.1,30.9,92,30.41,10.0,NW,3.5,-,N/A,,Clear,320,2013-09-16 10:53:00
7:53 AM,34.0,32.0,92,30.43,10.0,Calm,Calm,-,N/A,,Clear,0,2013-09-16 11:53:00
8:53 AM,43.0,39.9,89,30.44,10.0,Calm,Calm,-,N/A,,Clear,0,2013-09-16 12:53:00
9:53 AM,50.0,39.9,68,30.44,10.0,Calm,Calm,-,N/A,,Clear,0,2013-09-16 13:53:00
10:53 AM,52.0,37.9,59,30.45,10.0,WSW,3.5,-,N/A,,Clear,250,2013-09-16 14:53:00
11:53 AM,52.0,37.0,57,30.45,10.0,Calm,Calm,-,N/A,,Clear,0,2013-09-16 15:53:00
12:53 PM,55.9,37.9,51,30.44,10.0,Calm,Calm,-,N/A,,Scattered Clouds,0,2013-09-16 16:53:00
1:53 PM,55.9,39.0,53,30.44,10.0,Calm,Calm,-,N/A,,Mostly Cloudy,0,2013-09-16 17:53:00
2:53 PM,59.0,39.9,49,30.42,10.0,Calm,Calm,-,N/A,,Mostly Cloudy,0,2013-09-16 18:53:00
3:53 PM,57.0,41.0,55,30.40,10.0,East,6.9,-,N/A,,Overcast,90,2013-09-16 19:53:00
4:53 PM,55.9,41.0,57,30.39,10.0,SE,4.6,-,N/A,,Mostly Cloudy,140,2013-09-16 20:53:00
5:53 PM,54.0,42.1,64,30.39,10.0,Calm,Calm,-,N/A,,Overcast,0,2013-09-16 21:53:00
6:53 PM,52.0,44.1,74,30.38,10.0,ESE,4.6,-,N/A,,Clear,110,2013-09-16 22:53:00
7:53 PM,48.9,42.1,77,30.37,10.0,ESE,4.6,-,N/A,,Clear,110,2013-09-16 23:53:00
8:53 PM,46.0,42.1,86,30.36,10.0,East,4.6,-,N/A,,Clear,90,2013-09-17 00:53:00
9:53 PM,46.0,42.1,86,30.35,10.0,East,4.6,-,N/A,,Clear,80,2013-09-17 01:53:00
10:53 PM,44.1,42.1,93,30.34,10.0,East,3.5,-,N/A,,Clear,100,2013-09-17 02:53:00
11:53 PM,46.0,43.0,89,30.33,10.0,SE,5.8,-,N/A,,Clear,130,2013-09-17 03:53:00